createdAt,value
2022-10-18T00:00:07.221Z,99.90
2022-10-18T00:02:35.328Z,99.90
2022-10-18T00:05:03.576Z,99.90
2022-10-18T00:07:31.770Z,99.90
2022-10-18T00:10:01.445Z,99.90
2022-10-18T00:12:29.491Z,99.90
2022-10-18T00:14:57.571Z,99.90
2022-10-18T00:17:25.669Z,99.90
2022-10-18T00:19:53.806Z,99.90
2022-10-18T00:22:21.803Z,99.90
2022-10-18T00:24:50.091Z,99.90
2022-10-18T00:27:19.662Z,99.90
2022-10-18T00:29:47.743Z,99.90
2022-10-18T00:32:15.700Z,99.90
2022-10-18T00:34:43.744Z,99.90
2022-10-18T00:37:11.742Z,99.90
2022-10-18T00:39:40.094Z,99.90
2022-10-18T00:42:08.272Z,99.90
2022-10-18T00:45:08.487Z,99.90
2022-10-18T00:47:37.594Z,99.90
2022-10-18T00:50:08.879Z,99.90
2022-10-18T00:52:40.549Z,99.90
2022-10-18T00:55:09.795Z,99.90
2022-10-18T00:57:38.934Z,99.90
2022-10-18T01:00:10.628Z,99.90
2022-10-18T01:02:39.643Z,99.90
2022-10-18T01:05:08.879Z,99.90
2022-10-18T01:08:04.715Z,99.90
2022-10-18T01:10:40.509Z,99.90
2022-10-18T01:13:25.601Z,99.90
2022-10-18T01:16:01.445Z,99.90
2022-10-18T01:18:36.326Z,99.90
2022-10-18T01:21:19.239Z,99.90
2022-10-18T01:24:08.921Z,99.90
2022-10-18T01:26:51.854Z,99.90
2022-10-18T01:29:42.215Z,99.90
2022-10-18T01:32:14.977Z,99.90
2022-10-18T01:34:44.983Z,99.90
2022-10-18T01:37:17.466Z,99.90
2022-10-18T01:39:48.360Z,99.90
2022-10-18T01:42:21.086Z,99.90
2022-10-18T01:44:51.522Z,99.90
2022-10-18T01:47:21.586Z,99.90
2022-10-18T01:49:49.515Z,99.90
2022-10-18T01:52:17.839Z,99.90
2022-10-18T01:54:49.938Z,99.90
2022-10-18T01:57:24.915Z,99.90
2022-10-18T02:00:00.762Z,99.90
2022-10-18T02:02:41.604Z,99.90
2022-10-18T02:05:19.086Z,99.90
2022-10-18T02:08:12.028Z,99.90
2022-10-18T02:10:49.883Z,99.90
2022-10-18T02:13:21.234Z,99.90
2022-10-18T02:15:55.745Z,99.90
2022-10-18T02:18:30.990Z,99.90
2022-10-18T02:21:01.035Z,99.90
2022-10-18T02:23:29.235Z,99.90
2022-10-18T02:25:57.331Z,99.90
2022-10-18T02:28:25.848Z,99.90
2022-10-18T02:31:01.255Z,99.90
2022-10-18T02:33:36.750Z,99.90
2022-10-18T02:36:10.905Z,99.90
2022-10-18T02:38:41.820Z,99.90
2022-10-18T02:41:09.827Z,99.90
2022-10-18T02:43:38.240Z,99.90
2022-10-18T02:46:07.355Z,99.90
2022-10-18T02:48:38.413Z,99.90
2022-10-18T02:51:07.065Z,99.90
2022-10-18T02:53:34.986Z,99.90
2022-10-18T02:56:03.556Z,99.90
2022-10-18T02:58:31.612Z,99.90
2022-10-18T03:00:59.683Z,99.90
2022-10-18T03:03:27.745Z,99.90
2022-10-18T03:05:57.045Z,99.90
2022-10-18T03:08:25.184Z,99.90
2022-10-18T03:10:53.272Z,99.90
2022-10-18T03:13:21.804Z,99.90
2022-10-18T03:15:49.867Z,99.90
2022-10-18T03:18:17.841Z,99.90
2022-10-18T03:20:46.274Z,99.90
2022-10-18T03:23:15.661Z,99.90
2022-10-18T03:25:45.707Z,99.90
2022-10-18T03:28:14.483Z,99.90
2022-10-18T03:30:42.447Z,99.90
2022-10-18T03:33:10.488Z,99.90
2022-10-18T03:35:38.477Z,99.90
2022-10-18T03:38:06.492Z,99.90
2022-10-18T03:40:35.901Z,99.90
2022-10-18T03:43:03.851Z,99.90
2022-10-18T03:45:31.852Z,99.90
2022-10-18T03:47:59.939Z,99.90
2022-10-18T03:50:27.905Z,99.90
2022-10-18T03:52:56.181Z,99.90
2022-10-18T03:55:24.220Z,99.90
2022-10-18T03:57:53.535Z,99.90
2022-10-18T04:00:22.771Z,99.90
2022-10-18T04:02:53.408Z,99.90
2022-10-18T04:05:26.766Z,99.90
2022-10-18T04:07:55.316Z,99.90
2022-10-18T04:10:23.341Z,99.90
2022-10-18T04:12:51.333Z,99.90
2022-10-18T04:15:21.227Z,99.90
2022-10-18T04:17:49.313Z,99.90
2022-10-18T04:20:17.918Z,99.90
2022-10-18T04:22:46.346Z,99.90
2022-10-18T04:25:14.759Z,99.90
2022-10-18T04:27:42.864Z,99.90
2022-10-18T04:30:11.957Z,99.90
2022-10-18T04:32:41.301Z,99.90
2022-10-18T04:35:11.122Z,99.90
2022-10-18T04:37:39.283Z,99.90
2022-10-18T04:40:08.451Z,99.90
2022-10-18T04:42:36.370Z,99.90
2022-10-18T04:45:04.660Z,99.90
2022-10-18T04:47:32.842Z,99.90
2022-10-18T04:50:02.566Z,99.90
2022-10-18T04:52:30.652Z,99.90
2022-10-18T04:54:58.674Z,99.90
2022-10-18T04:57:26.675Z,99.90
2022-10-18T04:59:54.762Z,99.90
2022-10-18T05:02:23.299Z,99.90
2022-10-18T05:04:52.104Z,99.90
2022-10-18T05:07:21.418Z,99.90
2022-10-18T05:09:49.454Z,99.90
2022-10-18T05:12:17.440Z,99.90
2022-10-18T05:14:45.507Z,99.90
2022-10-18T05:17:13.517Z,99.90
2022-10-18T05:19:41.552Z,99.90
2022-10-18T05:22:09.590Z,99.90
2022-10-18T05:24:39.076Z,99.90
2022-10-18T05:27:07.138Z,99.90
2022-10-18T05:29:35.159Z,99.90
2022-10-18T05:32:03.296Z,99.90
2022-10-18T05:34:31.942Z,99.90
2022-10-18T05:37:00.362Z,99.90
2022-10-18T05:39:28.501Z,99.90
2022-10-18T05:41:58.152Z,99.90
2022-10-18T05:44:26.101Z,99.90
2022-10-18T05:46:54.150Z,99.90
2022-10-18T05:49:22.215Z,99.90
2022-10-18T05:51:50.471Z,99.90
2022-10-18T05:54:18.835Z,99.90
2022-10-18T05:56:46.827Z,99.90
2022-10-18T05:59:16.189Z,99.90
2022-10-18T06:01:44.434Z,99.90
2022-10-18T06:04:12.474Z,99.90
2022-10-18T06:06:40.943Z,99.90
2022-10-18T06:09:09.240Z,99.90
2022-10-18T06:11:38.281Z,99.90
2022-10-18T06:14:06.503Z,99.90
2022-10-18T06:19:05.178Z,99.90
2022-10-18T06:21:33.358Z,99.90
2022-10-18T06:24:01.407Z,99.90
2022-10-18T06:26:30.075Z,99.90
2022-10-18T06:28:58.330Z,99.90
2022-10-18T06:31:26.451Z,99.90
2022-10-18T06:33:57.135Z,99.90
2022-10-18T06:36:25.700Z,99.90
2022-10-18T06:38:54.492Z,99.90
2022-10-18T06:41:22.582Z,99.90
2022-10-18T06:43:50.950Z,99.90
2022-10-18T06:46:18.935Z,99.90
2022-10-18T06:48:48.049Z,99.90
2022-10-18T06:51:18.313Z,99.90
2022-10-18T06:53:59.066Z,99.90
2022-10-18T06:56:34.542Z,99.90
2022-10-18T06:59:02.733Z,99.90
2022-10-18T07:01:31.145Z,99.90
2022-10-18T07:03:59.307Z,99.90
2022-10-18T07:06:28.654Z,99.90
2022-10-18T07:08:57.071Z,99.90
2022-10-18T07:11:26.490Z,99.90
2022-10-18T07:13:55.429Z,99.90
2022-10-18T07:16:23.587Z,99.90
2022-10-18T07:18:52.795Z,99.90
2022-10-18T07:21:22.849Z,99.90
2022-10-18T07:23:52.986Z,99.90
2022-10-18T07:26:23.071Z,99.90
2022-10-18T07:28:54.148Z,99.90
2022-10-18T07:31:23.238Z,99.90
2022-10-18T07:33:51.482Z,99.90
2022-10-18T07:36:21.107Z,99.90
2022-10-18T07:38:49.143Z,99.90
2022-10-18T07:41:18.431Z,99.90
2022-10-18T07:43:48.390Z,99.90
2022-10-18T07:46:17.380Z,99.90
2022-10-18T07:48:45.635Z,99.90
2022-10-18T07:51:13.819Z,99.90
2022-10-18T07:53:42.013Z,99.90
2022-10-18T07:56:16.015Z,99.90
2022-10-18T07:58:46.498Z,99.90
2022-10-18T08:01:15.712Z,99.90
2022-10-18T08:03:44.491Z,99.90
2022-10-18T08:06:15.131Z,99.90
2022-10-18T08:08:43.523Z,99.90
2022-10-18T08:11:13.588Z,99.90
2022-10-18T08:13:46.051Z,99.90
2022-10-18T08:16:16.519Z,99.90
2022-10-18T08:18:44.827Z,99.90
2022-10-18T08:21:14.767Z,99.90
2022-10-18T08:23:43.202Z,99.90
2022-10-18T08:26:13.295Z,99.90
2022-10-18T08:28:46.109Z,99.90
2022-10-18T08:31:23.390Z,99.90
2022-10-18T08:33:55.854Z,99.90
2022-10-18T08:36:24.056Z,99.90
2022-10-18T08:38:52.152Z,99.90
2022-10-18T08:41:42.304Z,99.90
2022-10-18T08:44:18.093Z,99.90
2022-10-18T08:46:50.321Z,99.90
2022-10-18T08:49:28.411Z,99.90
2022-10-18T08:51:57.653Z,99.90
2022-10-18T08:54:33.000Z,99.90
2022-10-18T08:57:03.203Z,99.90
2022-10-18T08:59:38.819Z,99.90
2022-10-18T09:02:21.129Z,99.90
2022-10-18T09:04:55.215Z,99.90
2022-10-18T09:07:47.596Z,99.90
2022-10-18T09:10:25.664Z,99.90
2022-10-18T09:13:10.223Z,99.90
2022-10-18T09:15:44.426Z,99.90
2022-10-18T09:18:33.509Z,99.90
2022-10-18T09:21:07.181Z,99.90
2022-10-18T09:23:45.406Z,99.90
2022-10-18T09:26:18.567Z,99.90
2022-10-18T09:29:01.391Z,99.90
2022-10-18T09:31:38.227Z,99.60
2022-10-18T09:34:11.920Z,99.30
2022-10-18T09:36:40.282Z,98.40
2022-10-18T09:39:13.403Z,98.90
2022-10-18T09:41:45.642Z,99.20
2022-10-18T09:44:22.006Z,99.20
2022-10-18T09:46:54.557Z,99.70
2022-10-18T09:49:28.764Z,99.40
2022-10-18T09:51:57.987Z,99.00
2022-10-18T09:54:31.694Z,99.80
2022-10-18T09:57:05.822Z,99.30
2022-10-18T09:59:41.975Z,99.90
2022-10-18T10:02:14.494Z,99.90
2022-10-18T10:04:44.509Z,99.70
2022-10-18T10:07:15.150Z,99.20
2022-10-18T10:09:46.899Z,99.60
2022-10-18T10:12:28.690Z,99.70
2022-10-18T10:15:08.669Z,99.50
2022-10-18T10:17:39.603Z,99.20
2022-10-18T10:20:19.159Z,99.50
2022-10-18T10:22:48.227Z,99.10
2022-10-18T10:25:24.064Z,99.00
2022-10-18T10:27:52.368Z,99.00
2022-10-18T10:30:27.252Z,98.90
2022-10-18T10:32:57.025Z,98.70
2022-10-18T10:38:27.781Z,99.00
2022-10-18T10:40:56.699Z,98.90
2022-10-18T10:43:42.578Z,98.80
2022-10-18T10:46:12.956Z,98.60
2022-10-18T10:48:48.137Z,98.70
2022-10-18T10:51:19.323Z,97.70
2022-10-18T10:53:52.639Z,97.40
2022-10-18T10:56:29.529Z,96.70
2022-10-18T10:59:01.980Z,97.00
2022-10-18T11:01:34.209Z,96.80
2022-10-18T11:04:04.768Z,96.30
2022-10-18T11:06:45.482Z,97.20
2022-10-18T11:09:25.750Z,96.10
2022-10-18T11:12:09.282Z,95.40
2022-10-18T11:14:42.879Z,95.80
2022-10-18T11:17:25.448Z,96.50
2022-10-18T11:20:11.131Z,96.30
2022-10-18T11:22:45.098Z,96.60
2022-10-18T11:25:17.155Z,97.00
2022-10-18T11:27:53.739Z,97.10
2022-10-18T11:30:56.809Z,97.10
2022-10-18T11:34:03.667Z,96.80
2022-10-18T11:36:28.463Z,97.70
2022-10-18T11:39:04.019Z,97.60
2022-10-18T11:41:35.611Z,97.60
2022-10-18T11:44:05.740Z,97.70
2022-10-18T11:46:48.089Z,97.40
2022-10-18T11:49:48.403Z,98.30
2022-10-18T11:52:26.005Z,97.40
2022-10-18T11:55:11.806Z,97.40
2022-10-18T11:57:53.394Z,97.60
2022-10-18T12:00:30.305Z,97.50
2022-10-18T12:03:13.337Z,97.70
2022-10-18T12:05:44.256Z,97.80
2022-10-18T12:08:16.691Z,97.30
2022-10-18T12:11:07.984Z,97.20
2022-10-18T12:13:40.539Z,97.40
2022-10-18T12:16:09.763Z,97.20
2022-10-18T12:18:48.191Z,97.40
2022-10-18T12:21:23.101Z,97.40
2022-10-18T12:23:57.383Z,97.80
2022-10-18T12:26:28.285Z,97.80
2022-10-18T12:29:09.646Z,98.30
2022-10-18T12:31:41.611Z,97.50
2022-10-18T12:34:26.923Z,97.40
2022-10-18T12:37:32.698Z,98.00
2022-10-18T12:40:10.483Z,97.80
2022-10-18T12:42:45.539Z,97.10
2022-10-18T12:45:34.171Z,96.90
2022-10-18T12:48:03.825Z,97.10
2022-10-18T12:50:35.847Z,97.50
2022-10-18T12:53:07.034Z,96.60
2022-10-18T12:55:37.897Z,97.10
2022-10-18T12:58:24.350Z,97.10
2022-10-18T13:00:57.216Z,97.10
2022-10-18T13:03:56.522Z,96.70
2022-10-18T13:06:25.296Z,96.40
2022-10-18T13:09:19.270Z,96.20
2022-10-18T13:11:47.375Z,96.40
2022-10-18T13:15:12.625Z,96.80
2022-10-18T13:17:52.320Z,96.30
2022-10-18T13:20:27.882Z,96.50
2022-10-18T13:23:10.388Z,96.70
2022-10-18T13:25:51.719Z,97.00
2022-10-18T13:28:32.219Z,97.40
2022-10-18T13:31:12.862Z,96.60
2022-10-18T13:33:42.897Z,96.50
2022-10-18T13:36:23.592Z,96.70
2022-10-18T13:39:04.921Z,96.50
2022-10-18T13:41:57.402Z,96.60
2022-10-18T13:44:30.550Z,96.30
2022-10-18T13:47:35.435Z,96.40
2022-10-18T13:50:37.206Z,96.50
2022-10-18T13:53:45.252Z,96.30
2022-10-18T13:56:49.856Z,97.10
2022-10-18T13:59:31.453Z,96.70
2022-10-18T14:02:30.739Z,96.80
2022-10-18T14:05:25.871Z,96.90
2022-10-18T14:07:59.515Z,97.30
2022-10-18T14:10:50.067Z,97.80
2022-10-18T14:13:31.357Z,98.10
2022-10-18T14:16:07.901Z,98.40
2022-10-18T14:18:38.922Z,98.30
2022-10-18T14:21:15.380Z,97.90
2022-10-18T14:23:47.189Z,98.10
2022-10-18T14:26:16.936Z,98.10
2022-10-18T14:28:59.679Z,98.30
2022-10-18T14:31:30.792Z,98.70
2022-10-18T14:33:59.911Z,98.80
2022-10-18T14:36:31.717Z,98.90
2022-10-18T14:39:01.622Z,99.10
2022-10-18T14:41:32.781Z,99.00
2022-10-18T14:44:19.333Z,99.10
2022-10-18T14:46:50.894Z,99.30
2022-10-18T14:49:20.440Z,99.60
2022-10-18T14:51:52.384Z,99.70
2022-10-18T14:54:29.040Z,99.90
2022-10-18T14:57:00.369Z,99.90
2022-10-18T14:59:31.066Z,99.90
2022-10-18T15:02:05.058Z,99.90
2022-10-18T15:04:33.765Z,99.80
2022-10-18T15:07:03.851Z,99.90
2022-10-18T15:09:34.282Z,99.90
2022-10-18T15:12:03.297Z,99.90
2022-10-18T15:14:32.264Z,99.90
2022-10-18T15:17:06.331Z,99.90
2022-10-18T15:19:36.772Z,99.90
2022-10-18T15:22:30.940Z,99.90
2022-10-18T15:25:17.941Z,99.90
2022-10-18T15:27:48.394Z,99.90
2022-10-18T15:30:23.991Z,99.90
2022-10-18T15:32:56.483Z,99.90
2022-10-18T15:35:28.554Z,99.90
2022-10-18T15:37:58.298Z,99.90
2022-10-18T15:40:40.751Z,99.90
2022-10-18T15:43:39.174Z,99.90
2022-10-18T15:46:07.755Z,99.90
2022-10-18T15:48:39.810Z,99.90
2022-10-18T15:51:09.314Z,99.90
2022-10-18T15:53:44.390Z,99.90
2022-10-18T15:56:29.084Z,99.90
2022-10-18T15:58:58.042Z,99.90
2022-10-18T16:01:34.242Z,99.90
2022-10-18T16:04:08.954Z,99.90
2022-10-18T16:06:38.555Z,99.90
2022-10-18T16:09:06.783Z,99.90
2022-10-18T16:11:34.778Z,99.90
2022-10-18T16:14:03.175Z,99.90
2022-10-18T16:16:31.503Z,99.90
2022-10-18T16:18:59.895Z,99.90
2022-10-18T16:21:31.738Z,99.90
2022-10-18T16:24:00.276Z,99.90
2022-10-18T16:26:29.471Z,99.90
2022-10-18T16:28:58.466Z,99.90
2022-10-18T16:31:28.495Z,99.90
2022-10-18T16:33:57.300Z,99.90
2022-10-18T16:36:27.189Z,99.90
2022-10-18T16:38:57.073Z,99.90
2022-10-18T16:41:25.381Z,99.90
2022-10-18T16:43:53.920Z,99.90
2022-10-18T16:46:24.199Z,99.90
2022-10-18T16:48:52.891Z,99.90
2022-10-18T16:51:21.373Z,99.90
2022-10-18T16:53:49.700Z,99.90
2022-10-18T16:56:21.891Z,99.90
2022-10-18T16:58:51.487Z,99.90
2022-10-18T17:01:23.577Z,99.90
2022-10-18T17:03:52.790Z,99.90
2022-10-18T17:06:23.668Z,99.90
2022-10-18T17:08:52.901Z,99.90
2022-10-18T17:11:24.312Z,99.90
2022-10-18T17:13:52.732Z,99.90
2022-10-18T17:16:25.179Z,99.90
2022-10-18T17:18:53.362Z,99.90
2022-10-18T17:21:21.546Z,99.90
2022-10-18T17:23:49.643Z,99.90
2022-10-18T17:26:34.277Z,99.90
2022-10-18T17:29:06.973Z,99.90
2022-10-18T17:31:36.055Z,99.90
2022-10-18T17:34:05.351Z,99.90
2022-10-18T17:36:34.582Z,99.90
2022-10-18T17:39:03.042Z,99.90
2022-10-18T17:41:31.568Z,99.90
2022-10-18T17:44:00.330Z,99.90
2022-10-18T17:46:30.060Z,99.90
2022-10-18T17:48:58.815Z,99.90
2022-10-18T17:51:26.903Z,99.90
2022-10-18T17:53:56.264Z,99.90
2022-10-18T17:56:34.768Z,99.90
2022-10-18T17:59:03.702Z,99.90
2022-10-18T18:01:33.660Z,99.90
2022-10-18T18:04:02.936Z,99.90
2022-10-18T18:06:33.926Z,99.90
2022-10-18T18:09:04.776Z,99.90
2022-10-18T18:11:33.216Z,99.90
2022-10-18T18:14:01.485Z,99.90
2022-10-18T18:16:31.191Z,99.90
2022-10-18T18:19:00.634Z,99.90
2022-10-18T18:21:29.947Z,99.90
2022-10-18T18:23:59.397Z,99.90
2022-10-18T18:26:32.388Z,99.90
2022-10-18T18:31:40.005Z,99.90
2022-10-18T18:34:12.421Z,99.90
2022-10-18T18:36:41.475Z,99.90
2022-10-18T18:39:19.598Z,99.90
2022-10-18T18:41:52.268Z,99.90
2022-10-18T18:44:21.392Z,99.90
2022-10-18T18:46:50.335Z,99.90
2022-10-18T18:49:20.447Z,99.90
2022-10-18T18:51:48.593Z,99.90
2022-10-18T18:54:19.297Z,99.90
2022-10-18T18:56:49.930Z,99.90
2022-10-18T18:59:18.500Z,99.90
2022-10-18T19:01:46.794Z,99.90
2022-10-18T19:04:14.897Z,99.90
2022-10-18T19:06:47.246Z,99.90
2022-10-18T19:09:19.519Z,99.90
2022-10-18T19:11:49.199Z,99.90
2022-10-18T19:14:17.664Z,99.90
2022-10-18T19:16:49.215Z,99.90
2022-10-18T19:19:18.995Z,99.90
2022-10-18T19:21:51.315Z,99.90
2022-10-18T19:24:20.336Z,99.90
2022-10-18T19:26:53.684Z,99.90
2022-10-18T19:29:24.066Z,99.90
2022-10-18T19:31:53.967Z,99.90
2022-10-18T19:34:25.542Z,99.90
2022-10-18T19:36:55.232Z,99.90
2022-10-18T19:39:24.838Z,99.90
2022-10-18T19:41:55.185Z,99.90
2022-10-18T19:44:24.651Z,99.90
2022-10-18T19:46:53.123Z,99.90
2022-10-18T19:49:21.280Z,99.90
2022-10-18T19:51:52.105Z,99.90
2022-10-18T19:54:22.043Z,99.90
2022-10-18T19:56:50.387Z,99.90
2022-10-18T19:59:18.926Z,99.90
2022-10-18T20:01:47.238Z,99.90
2022-10-18T20:04:16.452Z,99.90
2022-10-18T20:06:44.900Z,99.90
2022-10-18T20:09:17.753Z,99.90
2022-10-18T20:11:51.710Z,99.90
2022-10-18T20:14:20.102Z,99.90
2022-10-18T20:16:48.317Z,99.90
2022-10-18T20:19:16.448Z,99.90
2022-10-18T20:21:44.562Z,99.90
2022-10-18T20:24:12.961Z,99.90
2022-10-18T20:26:41.116Z,99.90
2022-10-18T20:29:11.192Z,99.90
2022-10-18T20:31:39.556Z,99.90
2022-10-18T20:34:11.168Z,99.90
2022-10-18T20:36:40.375Z,99.90
2022-10-18T20:39:08.966Z,99.90
2022-10-18T20:41:41.072Z,99.90
2022-10-18T20:44:15.094Z,99.90
2022-10-18T20:46:43.777Z,99.90
2022-10-18T20:49:15.771Z,99.90
2022-10-18T20:51:44.211Z,99.90
2022-10-18T20:54:12.861Z,99.90
2022-10-18T20:56:40.968Z,99.90
2022-10-18T20:59:13.928Z,99.90
2022-10-18T21:01:42.121Z,99.90
2022-10-18T21:04:11.553Z,99.90
2022-10-18T21:06:42.050Z,99.90
2022-10-18T21:09:13.120Z,99.90
2022-10-18T21:11:44.652Z,99.90
2022-10-18T21:14:16.526Z,99.90
2022-10-18T21:16:45.020Z,99.90
2022-10-18T21:19:15.218Z,99.90
2022-10-18T21:21:45.841Z,99.90
2022-10-18T21:24:14.928Z,99.90
2022-10-18T21:26:43.030Z,99.90
2022-10-18T21:29:15.953Z,99.90
2022-10-18T21:31:46.232Z,99.90
2022-10-18T21:34:17.085Z,99.90
2022-10-18T21:36:46.901Z,99.90
2022-10-18T21:39:17.087Z,99.90
2022-10-18T21:41:45.326Z,99.90
2022-10-18T21:44:25.014Z,99.90
2022-10-18T21:46:53.276Z,99.90
2022-10-18T21:49:24.750Z,99.90
2022-10-18T21:51:52.815Z,99.90
2022-10-18T21:54:21.200Z,99.90
2022-10-18T21:56:49.241Z,99.90
2022-10-18T21:59:18.645Z,99.90
2022-10-18T22:01:46.767Z,99.90
2022-10-18T22:04:20.282Z,99.90
2022-10-18T22:06:48.695Z,99.90
2022-10-18T22:09:17.215Z,99.90
2022-10-18T22:11:47.234Z,99.90
2022-10-18T22:14:15.764Z,99.90
2022-10-18T22:16:45.268Z,99.90
2022-10-18T22:19:13.401Z,99.90
2022-10-18T22:21:41.696Z,99.90
2022-10-18T22:24:10.621Z,99.90
2022-10-18T22:26:40.617Z,99.90
2022-10-18T22:29:12.112Z,99.90
2022-10-18T22:31:42.557Z,99.90
2022-10-18T22:34:13.844Z,99.90
2022-10-18T22:36:42.417Z,99.90
2022-10-18T22:39:11.229Z,99.90
2022-10-18T22:41:39.478Z,99.90
2022-10-18T22:44:13.397Z,99.90
2022-10-18T22:46:42.090Z,99.90
2022-10-18T22:49:12.903Z,99.90
2022-10-18T22:51:41.544Z,99.90
2022-10-18T22:54:10.460Z,99.90
2022-10-18T22:56:38.582Z,99.90
2022-10-18T22:59:06.794Z,99.90
2022-10-18T23:01:34.940Z,99.90
2022-10-18T23:04:04.059Z,99.90
2022-10-18T23:06:37.362Z,99.90
2022-10-18T23:09:08.703Z,99.90
2022-10-18T23:11:37.959Z,99.90
2022-10-18T23:14:07.568Z,99.90
2022-10-18T23:16:36.060Z,99.90
2022-10-18T23:19:04.976Z,99.90
2022-10-18T23:21:35.213Z,99.90
2022-10-18T23:24:03.427Z,99.90
2022-10-18T23:26:31.566Z,99.90
2022-10-18T23:29:02.949Z,99.90
2022-10-18T23:31:33.138Z,99.90
2022-10-18T23:34:03.214Z,99.90
2022-10-18T23:36:32.578Z,99.90
2022-10-18T23:39:02.908Z,99.90
2022-10-18T23:41:31.463Z,99.90
2022-10-18T23:43:59.604Z,99.90
2022-10-18T23:46:27.680Z,99.90
2022-10-18T23:48:55.946Z,99.90
2022-10-18T23:51:24.180Z,99.90
2022-10-18T23:53:52.357Z,99.90
2022-10-18T23:56:21.921Z,99.90
2022-10-18T23:58:50.029Z,99.90
